sensor_id;sensor_type;location;lat;lon;timestamp;P1;durP1;ratioP1;P2;durP2;ratioP2
77888;SDS011;67082;41.704;44.768;2023-04-25T00:00:00;0.30;;;0.30;;
77888;SDS011;67082;41.704;44.768;2023-04-25T00:02:59;0.47;;;0.35;;
77888;SDS011;67082;41.704;44.768;2023-04-25T00:05:28;0.52;;;0.32;;
77888;SDS011;67082;41.704;44.768;2023-04-25T00:07:57;0.40;;;0.40;;
77888;SDS011;67082;41.704;44.768;2023-04-25T00:10:25;0.32;;;0.30;;
77888;SDS011;67082;41.704;44.768;2023-04-25T00:12:54;1.23;;;0.30;;
77888;SDS011;67082;41.704;44.768;2023-04-25T00:15:22;1.15;;;0.38;;
77888;SDS011;67082;41.704;44.768;2023-04-25T00:17:50;0.73;;;0.40;;
77888;SDS011;67082;41.704;44.768;2023-04-25T00:20:20;0.30;;;0.30;;
77888;SDS011;67082;41.704;44.768;2023-04-25T00:22:50;0.30;;;0.30;;
77888;SDS011;67082;41.704;44.768;2023-04-25T00:25:21;0.50;;;0.30;;
77888;SDS011;67082;41.704;44.768;2023-04-25T00:27:50;0.30;;;0.30;;
77888;SDS011;67082;41.704;44.768;2023-04-25T00:30:17;0.30;;;0.30;;
77888;SDS011;67082;41.704;44.768;2023-04-25T00:32:46;0.30;;;0.30;;
77888;SDS011;67082;41.704;44.768;2023-04-25T00:35:16;1.65;;;0.30;;
77888;SDS011;67082;41.704;44.768;2023-04-25T00:37:45;0.30;;;0.30;;
77888;SDS011;67082;41.704;44.768;2023-04-25T00:40:14;0.30;;;0.30;;
77888;SDS011;67082;41.704;44.768;2023-04-25T00:42:42;0.47;;;0.35;;
77888;SDS011;67082;41.704;44.768;2023-04-25T00:45:12;1.38;;;0.40;;
77888;SDS011;67082;41.704;44.768;2023-04-25T00:47:42;3.10;;;0.30;;
77888;SDS011;67082;41.704;44.768;2023-04-25T00:50:13;0.45;;;0.30;;
77888;SDS011;67082;41.704;44.768;2023-04-25T00:52:43;0.50;;;0.30;;
77888;SDS011;67082;41.704;44.768;2023-04-25T00:55:12;0.30;;;0.30;;
77888;SDS011;67082;41.704;44.768;2023-04-25T00:57:40;0.55;;;0.30;;
77888;SDS011;67082;41.704;44.768;2023-04-25T01:00:09;0.43;;;0.30;;
77888;SDS011;67082;41.704;44.768;2023-04-25T01:02:38;0.73;;;0.32;;
77888;SDS011;67082;41.704;44.768;2023-04-25T01:05:09;0.95;;;0.32;;
77888;SDS011;67082;41.704;44.768;2023-04-25T01:07:37;2.38;;;0.40;;
77888;SDS011;67082;41.704;44.768;2023-04-25T01:10:05;2.25;;;0.30;;
77888;SDS011;67082;41.704;44.768;2023-04-25T01:12:34;0.30;;;0.30;;
77888;SDS011;67082;41.704;44.768;2023-04-25T01:15:03;0.75;;;0.30;;
77888;SDS011;67082;41.704;44.768;2023-04-25T01:17:33;0.50;;;0.40;;
77888;SDS011;67082;41.704;44.768;2023-04-25T01:20:03;0.50;;;0.35;;
77888;SDS011;67082;41.704;44.768;2023-04-25T01:22:32;0.98;;;0.50;;
77888;SDS011;67082;41.704;44.768;2023-04-25T01:25:01;3.17;;;0.57;;
77888;SDS011;67082;41.704;44.768;2023-04-25T01:27:31;1.33;;;0.32;;
77888;SDS011;67082;41.704;44.768;2023-04-25T01:30:00;0.60;;;0.40;;
77888;SDS011;67082;41.704;44.768;2023-04-25T01:32:33;1.23;;;0.38;;
77888;SDS011;67082;41.704;44.768;2023-04-25T01:35:07;0.40;;;0.40;;
77888;SDS011;67082;41.704;44.768;2023-04-25T01:37:39;0.70;;;0.40;;
77888;SDS011;67082;41.704;44.768;2023-04-25T01:40:11;0.30;;;0.30;;
77888;SDS011;67082;41.704;44.768;2023-04-25T01:42:42;0.30;;;0.30;;
77888;SDS011;67082;41.704;44.768;2023-04-25T01:45:11;0.60;;;0.30;;
77888;SDS011;67082;41.704;44.768;2023-04-25T01:47:41;0.65;;;0.30;;
77888;SDS011;67082;41.704;44.768;2023-04-25T01:50:11;0.30;;;0.30;;
77888;SDS011;67082;41.704;44.768;2023-04-25T01:52:40;0.75;;;0.30;;
77888;SDS011;67082;41.704;44.768;2023-04-25T01:55:09;0.38;;;0.30;;
77888;SDS011;67082;41.704;44.768;2023-04-25T01:57:49;0.30;;;0.30;;
77888;SDS011;67082;41.704;44.768;2023-04-25T02:00:20;0.30;;;0.30;;
77888;SDS011;67082;41.704;44.768;2023-04-25T02:02:48;1.38;;;0.30;;
77888;SDS011;67082;41.704;44.768;2023-04-25T02:05:37;1.10;;;0.40;;
77888;SDS011;67082;41.704;44.768;2023-04-25T02:08:09;0.45;;;0.38;;
77888;SDS011;67082;41.704;44.768;2023-04-25T02:10:37;0.73;;;0.30;;
77888;SDS011;67082;41.704;44.768;2023-04-25T02:13:14;0.55;;;0.30;;
77888;SDS011;67082;41.704;44.768;2023-04-25T02:16:02;0.52;;;0.38;;
77888;SDS011;67082;41.704;44.768;2023-04-25T02:18:31;0.45;;;0.30;;
77888;SDS011;67082;41.704;44.768;2023-04-25T02:20:59;0.28;;;0.28;;
77888;SDS011;67082;41.704;44.768;2023-04-25T02:23:28;0.30;;;0.30;;
77888;SDS011;67082;41.704;44.768;2023-04-25T02:26:00;0.30;;;0.30;;
77888;SDS011;67082;41.704;44.768;2023-04-25T02:28:28;0.30;;;0.30;;
77888;SDS011;67082;41.704;44.768;2023-04-25T02:30:56;0.30;;;0.30;;
77888;SDS011;67082;41.704;44.768;2023-04-25T02:33:25;0.30;;;0.30;;
77888;SDS011;67082;41.704;44.768;2023-04-25T02:35:52;0.30;;;0.30;;
77888;SDS011;67082;41.704;44.768;2023-04-25T02:38:22;1.73;;;0.40;;
77888;SDS011;67082;41.704;44.768;2023-04-25T02:40:50;0.65;;;0.30;;
77888;SDS011;67082;41.704;44.768;2023-04-25T02:43:22;0.30;;;0.30;;
77888;SDS011;67082;41.704;44.768;2023-04-25T02:45:51;0.47;;;0.30;;
77888;SDS011;67082;41.704;44.768;2023-04-25T02:48:20;0.30;;;0.30;;
77888;SDS011;67082;41.704;44.768;2023-04-25T02:50:48;1.17;;;0.40;;
77888;SDS011;67082;41.704;44.768;2023-04-25T02:53:18;0.30;;;0.30;;
77888;SDS011;67082;41.704;44.768;2023-04-25T02:55:49;0.30;;;0.30;;
77888;SDS011;67082;41.704;44.768;2023-04-25T02:58:17;0.57;;;0.40;;
77888;SDS011;67082;41.704;44.768;2023-04-25T03:00:48;2.38;;;0.38;;
77888;SDS011;67082;41.704;44.768;2023-04-25T03:03:17;0.50;;;0.30;;
77888;SDS011;67082;41.704;44.768;2023-04-25T03:05:50;0.38;;;0.30;;
77888;SDS011;67082;41.704;44.768;2023-04-25T03:08:25;0.60;;;0.35;;
77888;SDS011;67082;41.704;44.768;2023-04-25T03:11:00;0.50;;;0.40;;
77888;SDS011;67082;41.704;44.768;2023-04-25T03:13:29;0.40;;;0.40;;
77888;SDS011;67082;41.704;44.768;2023-04-25T03:15:59;0.63;;;0.30;;
77888;SDS011;67082;41.704;44.768;2023-04-25T03:18:27;0.47;;;0.30;;
77888;SDS011;67082;41.704;44.768;2023-04-25T03:20:55;0.63;;;0.40;;
77888;SDS011;67082;41.704;44.768;2023-04-25T03:23:25;0.30;;;0.30;;
77888;SDS011;67082;41.704;44.768;2023-04-25T03:25:55;2.50;;;0.45;;
77888;SDS011;67082;41.704;44.768;2023-04-25T03:28:24;0.65;;;0.35;;
77888;SDS011;67082;41.704;44.768;2023-04-25T03:30:55;1.52;;;0.40;;
77888;SDS011;67082;41.704;44.768;2023-04-25T03:33:24;0.47;;;0.30;;
77888;SDS011;67082;41.704;44.768;2023-04-25T03:35:52;0.75;;;0.40;;
77888;SDS011;67082;41.704;44.768;2023-04-25T03:38:20;1.55;;;0.35;;
77888;SDS011;67082;41.704;44.768;2023-04-25T03:40:49;0.28;;;0.28;;
77888;SDS011;67082;41.704;44.768;2023-04-25T03:43:24;0.40;;;0.40;;
77888;SDS011;67082;41.704;44.768;2023-04-25T03:45:58;0.50;;;0.32;;
77888;SDS011;67082;41.704;44.768;2023-04-25T03:48:26;0.60;;;0.40;;
77888;SDS011;67082;41.704;44.768;2023-04-25T03:50:55;1.13;;;0.30;;
77888;SDS011;67082;41.704;44.768;2023-04-25T03:53:24;0.63;;;0.30;;
77888;SDS011;67082;41.704;44.768;2023-04-25T03:56:10;0.30;;;0.30;;
77888;SDS011;67082;41.704;44.768;2023-04-25T03:58:39;0.52;;;0.32;;
77888;SDS011;67082;41.704;44.768;2023-04-25T04:01:08;0.80;;;0.40;;
77888;SDS011;67082;41.704;44.768;2023-04-25T04:03:38;0.68;;;0.40;;
77888;SDS011;67082;41.704;44.768;2023-04-25T04:06:06;0.73;;;0.30;;
77888;SDS011;67082;41.704;44.768;2023-04-25T04:08:40;1.02;;;0.40;;
77888;SDS011;67082;41.704;44.768;2023-04-25T04:11:09;1.98;;;0.40;;
77888;SDS011;67082;41.704;44.768;2023-04-25T04:13:38;0.68;;;0.40;;
77888;SDS011;67082;41.704;44.768;2023-04-25T04:16:07;2.22;;;0.40;;
77888;SDS011;67082;41.704;44.768;2023-04-25T04:18:35;0.55;;;0.30;;
77888;SDS011;67082;41.704;44.768;2023-04-25T04:21:03;0.30;;;0.30;;
77888;SDS011;67082;41.704;44.768;2023-04-25T04:23:34;0.50;;;0.30;;
77888;SDS011;67082;41.704;44.768;2023-04-25T04:26:07;0.50;;;0.40;;
77888;SDS011;67082;41.704;44.768;2023-04-25T04:28:47;0.45;;;0.30;;
77888;SDS011;67082;41.704;44.768;2023-04-25T04:31:38;1.08;;;0.40;;
77888;SDS011;67082;41.704;44.768;2023-04-25T04:34:06;0.73;;;0.40;;
77888;SDS011;67082;41.704;44.768;2023-04-25T04:36:35;1.65;;;0.50;;
77888;SDS011;67082;41.704;44.768;2023-04-25T04:39:04;1.67;;;0.50;;
77888;SDS011;67082;41.704;44.768;2023-04-25T04:41:42;1.08;;;0.40;;
77888;SDS011;67082;41.704;44.768;2023-04-25T04:44:34;0.85;;;0.40;;
77888;SDS011;67082;41.704;44.768;2023-04-25T04:47:26;1.48;;;0.40;;
77888;SDS011;67082;41.704;44.768;2023-04-25T04:50:21;0.40;;;0.30;;
77888;SDS011;67082;41.704;44.768;2023-04-25T04:53:18;1.00;;;0.47;;
77888;SDS011;67082;41.704;44.768;2023-04-25T04:56:15;1.88;;;0.45;;
77888;SDS011;67082;41.704;44.768;2023-04-25T04:58:56;0.98;;;0.45;;
77888;SDS011;67082;41.704;44.768;2023-04-25T05:01:34;0.45;;;0.30;;
77888;SDS011;67082;41.704;44.768;2023-04-25T05:04:21;0.93;;;0.40;;
77888;SDS011;67082;41.704;44.768;2023-04-25T05:06:49;0.70;;;0.40;;
77888;SDS011;67082;41.704;44.768;2023-04-25T05:09:36;0.38;;;0.30;;
77888;SDS011;67082;41.704;44.768;2023-04-25T05:12:22;0.82;;;0.40;;
77888;SDS011;67082;41.704;44.768;2023-04-25T05:14:57;0.50;;;0.40;;
77888;SDS011;67082;41.704;44.768;2023-04-25T05:17:32;1.33;;;0.32;;
77888;SDS011;67082;41.704;44.768;2023-04-25T05:20:24;1.10;;;0.70;;
77888;SDS011;67082;41.704;44.768;2023-04-25T05:23:07;1.60;;;0.50;;
77888;SDS011;67082;41.704;44.768;2023-04-25T05:25:59;0.93;;;0.45;;
77888;SDS011;67082;41.704;44.768;2023-04-25T05:28:45;0.68;;;0.47;;
77888;SDS011;67082;41.704;44.768;2023-04-25T05:31:39;0.35;;;0.35;;
77888;SDS011;67082;41.704;44.768;2023-04-25T05:34:13;1.25;;;0.50;;
77888;SDS011;67082;41.704;44.768;2023-04-25T05:36:55;0.45;;;0.40;;
77888;SDS011;67082;41.704;44.768;2023-04-25T05:39:24;1.17;;;0.50;;
77888;SDS011;67082;41.704;44.768;2023-04-25T05:42:14;3.60;;;2.17;;
77888;SDS011;67082;41.704;44.768;2023-04-25T05:44:51;2.45;;;0.95;;
77888;SDS011;67082;41.704;44.768;2023-04-25T05:47:32;0.98;;;0.40;;
77888;SDS011;67082;41.704;44.768;2023-04-25T05:50:07;1.73;;;0.50;;
77888;SDS011;67082;41.704;44.768;2023-04-25T05:53:01;2.35;;;0.50;;
77888;SDS011;67082;41.704;44.768;2023-04-25T05:55:32;0.73;;;0.40;;
77888;SDS011;67082;41.704;44.768;2023-04-25T05:58:06;2.05;;;0.40;;
77888;SDS011;67082;41.704;44.768;2023-04-25T06:00:35;3.08;;;0.82;;
77888;SDS011;67082;41.704;44.768;2023-04-25T06:03:03;0.85;;;0.45;;
77888;SDS011;67082;41.704;44.768;2023-04-25T06:05:32;1.35;;;0.50;;
77888;SDS011;67082;41.704;44.768;2023-04-25T06:08:00;1.75;;;0.50;;
77888;SDS011;67082;41.704;44.768;2023-04-25T06:10:28;2.00;;;0.50;;
77888;SDS011;67082;41.704;44.768;2023-04-25T06:12:56;1.95;;;0.50;;
77888;SDS011;67082;41.704;44.768;2023-04-25T06:15:25;2.25;;;0.50;;
77888;SDS011;67082;41.704;44.768;2023-04-25T06:17:55;2.40;;;0.60;;
77888;SDS011;67082;41.704;44.768;2023-04-25T06:20:25;1.52;;;0.40;;
77888;SDS011;67082;41.704;44.768;2023-04-25T06:22:56;1.38;;;0.60;;
77888;SDS011;67082;41.704;44.768;2023-04-25T06:25:37;1.90;;;0.50;;
77888;SDS011;67082;41.704;44.768;2023-04-25T06:28:06;1.85;;;0.50;;
77888;SDS011;67082;41.704;44.768;2023-04-25T06:30:34;1.40;;;0.52;;
77888;SDS011;67082;41.704;44.768;2023-04-25T06:33:07;1.95;;;0.50;;
77888;SDS011;67082;41.704;44.768;2023-04-25T06:35:37;3.10;;;0.50;;
77888;SDS011;67082;41.704;44.768;2023-04-25T06:38:09;2.58;;;0.70;;
77888;SDS011;67082;41.704;44.768;2023-04-25T06:40:39;1.15;;;0.50;;
77888;SDS011;67082;41.704;44.768;2023-04-25T06:43:09;1.38;;;0.60;;
77888;SDS011;67082;41.704;44.768;2023-04-25T06:45:50;1.63;;;0.60;;
77888;SDS011;67082;41.704;44.768;2023-04-25T06:48:20;0.88;;;0.40;;
77888;SDS011;67082;41.704;44.768;2023-04-25T06:50:49;1.60;;;0.50;;
77888;SDS011;67082;41.704;44.768;2023-04-25T06:53:17;1.80;;;0.60;;
77888;SDS011;67082;41.704;44.768;2023-04-25T06:55:51;2.33;;;0.55;;
77888;SDS011;67082;41.704;44.768;2023-04-25T06:58:21;2.28;;;0.65;;
77888;SDS011;67082;41.704;44.768;2023-04-25T07:00:53;2.50;;;0.80;;
77888;SDS011;67082;41.704;44.768;2023-04-25T07:03:23;1.25;;;0.55;;
77888;SDS011;67082;41.704;44.768;2023-04-25T07:05:58;2.10;;;0.47;;
77888;SDS011;67082;41.704;44.768;2023-04-25T07:08:26;6.25;;;0.50;;
77888;SDS011;67082;41.704;44.768;2023-04-25T07:10:54;2.25;;;0.68;;
77888;SDS011;67082;41.704;44.768;2023-04-25T07:13:24;4.50;;;3.00;;
77888;SDS011;67082;41.704;44.768;2023-04-25T07:15:53;1.10;;;0.63;;
77888;SDS011;67082;41.704;44.768;2023-04-25T07:18:24;2.35;;;0.82;;
77888;SDS011;67082;41.704;44.768;2023-04-25T07:20:52;2.30;;;0.60;;
77888;SDS011;67082;41.704;44.768;2023-04-25T07:23:20;2.65;;;0.60;;
77888;SDS011;67082;41.704;44.768;2023-04-25T07:25:49;2.85;;;0.60;;
77888;SDS011;67082;41.704;44.768;2023-04-25T07:28:20;0.65;;;0.45;;
77888;SDS011;67082;41.704;44.768;2023-04-25T07:30:49;0.50;;;0.40;;
77888;SDS011;67082;41.704;44.768;2023-04-25T07:33:17;1.35;;;0.50;;
77888;SDS011;67082;41.704;44.768;2023-04-25T07:35:48;2.50;;;0.75;;
77888;SDS011;67082;41.704;44.768;2023-04-25T07:38:17;1.77;;;0.52;;
77888;SDS011;67082;41.704;44.768;2023-04-25T07:40:47;1.25;;;0.50;;
77888;SDS011;67082;41.704;44.768;2023-04-25T07:43:16;0.90;;;0.50;;
77888;SDS011;67082;41.704;44.768;2023-04-25T07:46:05;1.13;;;0.50;;
77888;SDS011;67082;41.704;44.768;2023-04-25T07:48:35;1.42;;;0.60;;
77888;SDS011;67082;41.704;44.768;2023-04-25T07:51:04;1.08;;;0.60;;
77888;SDS011;67082;41.704;44.768;2023-04-25T07:53:35;1.25;;;0.60;;
77888;SDS011;67082;41.704;44.768;2023-04-25T07:56:12;3.35;;;0.70;;
77888;SDS011;67082;41.704;44.768;2023-04-25T07:58:43;1.50;;;0.60;;
77888;SDS011;67082;41.704;44.768;2023-04-25T08:01:14;3.05;;;0.70;;
77888;SDS011;67082;41.704;44.768;2023-04-25T08:04:03;2.63;;;0.85;;
77888;SDS011;67082;41.704;44.768;2023-04-25T08:06:46;3.13;;;0.77;;
77888;SDS011;67082;41.704;44.768;2023-04-25T08:11:52;0.90;;;0.50;;
77888;SDS011;67082;41.704;44.768;2023-04-25T08:14:25;1.27;;;0.57;;
77888;SDS011;67082;41.704;44.768;2023-04-25T08:16:55;1.75;;;0.50;;
77888;SDS011;67082;41.704;44.768;2023-04-25T08:19:24;1.35;;;0.70;;
77888;SDS011;67082;41.704;44.768;2023-04-25T08:21:52;3.13;;;0.80;;
77888;SDS011;67082;41.704;44.768;2023-04-25T08:24:30;9.48;;;1.42;;
77888;SDS011;67082;41.704;44.768;2023-04-25T08:26:58;1.92;;;0.77;;
77888;SDS011;67082;41.704;44.768;2023-04-25T08:29:28;2.60;;;0.70;;
77888;SDS011;67082;41.704;44.768;2023-04-25T08:31:57;3.47;;;0.63;;
77888;SDS011;67082;41.704;44.768;2023-04-25T08:34:25;1.98;;;0.80;;
77888;SDS011;67082;41.704;44.768;2023-04-25T08:36:53;1.58;;;0.75;;
77888;SDS011;67082;41.704;44.768;2023-04-25T08:39:34;2.28;;;0.80;;
77888;SDS011;67082;41.704;44.768;2023-04-25T08:42:15;3.00;;;0.80;;
77888;SDS011;67082;41.704;44.768;2023-04-25T08:44:44;2.83;;;0.73;;
77888;SDS011;67082;41.704;44.768;2023-04-25T08:47:15;1.15;;;0.65;;
77888;SDS011;67082;41.704;44.768;2023-04-25T08:49:50;4.43;;;1.10;;
77888;SDS011;67082;41.704;44.768;2023-04-25T08:52:22;3.67;;;1.10;;
77888;SDS011;67082;41.704;44.768;2023-04-25T08:54:53;1.88;;;0.90;;
77888;SDS011;67082;41.704;44.768;2023-04-25T08:57:22;3.40;;;0.82;;
77888;SDS011;67082;41.704;44.768;2023-04-25T08:59:51;1.95;;;0.77;;
77888;SDS011;67082;41.704;44.768;2023-04-25T09:02:22;5.45;;;2.22;;
77888;SDS011;67082;41.704;44.768;2023-04-25T09:04:53;3.78;;;0.80;;
77888;SDS011;67082;41.704;44.768;2023-04-25T09:07:22;4.50;;;1.00;;
77888;SDS011;67082;41.704;44.768;2023-04-25T09:09:51;3.80;;;0.95;;
77888;SDS011;67082;41.704;44.768;2023-04-25T09:12:21;1.70;;;0.90;;
77888;SDS011;67082;41.704;44.768;2023-04-25T09:15:03;2.90;;;0.90;;
77888;SDS011;67082;41.704;44.768;2023-04-25T09:17:56;5.93;;;1.10;;
77888;SDS011;67082;41.704;44.768;2023-04-25T09:20:42;2.17;;;1.00;;
77888;SDS011;67082;41.704;44.768;2023-04-25T09:23:31;5.47;;;0.90;;
77888;SDS011;67082;41.704;44.768;2023-04-25T09:26:15;5.22;;;1.10;;
77888;SDS011;67082;41.704;44.768;2023-04-25T09:28:45;3.40;;;0.90;;
77888;SDS011;67082;41.704;44.768;2023-04-25T09:31:24;6.35;;;1.27;;
77888;SDS011;67082;41.704;44.768;2023-04-25T09:34:00;5.30;;;1.10;;
77888;SDS011;67082;41.704;44.768;2023-04-25T09:36:37;4.65;;;1.08;;
77888;SDS011;67082;41.704;44.768;2023-04-25T09:39:28;3.38;;;1.00;;
77888;SDS011;67082;41.704;44.768;2023-04-25T09:42:04;2.08;;;1.13;;
77888;SDS011;67082;41.704;44.768;2023-04-25T09:44:33;4.45;;;1.30;;
77888;SDS011;67082;41.704;44.768;2023-04-25T09:47:01;3.13;;;1.40;;
77888;SDS011;67082;41.704;44.768;2023-04-25T09:49:31;4.47;;;1.10;;
77888;SDS011;67082;41.704;44.768;2023-04-25T09:52:03;3.13;;;1.25;;
77888;SDS011;67082;41.704;44.768;2023-04-25T09:54:50;3.80;;;1.08;;
77888;SDS011;67082;41.704;44.768;2023-04-25T09:57:26;2.63;;;1.05;;
77888;SDS011;67082;41.704;44.768;2023-04-25T09:59:56;2.35;;;1.10;;
77888;SDS011;67082;41.704;44.768;2023-04-25T10:02:31;3.47;;;1.10;;
77888;SDS011;67082;41.704;44.768;2023-04-25T10:05:06;2.80;;;1.00;;
77888;SDS011;67082;41.704;44.768;2023-04-25T10:07:39;3.80;;;1.20;;
77888;SDS011;67082;41.704;44.768;2023-04-25T10:10:13;5.97;;;1.10;;
77888;SDS011;67082;41.704;44.768;2023-04-25T10:12:41;3.58;;;0.90;;
77888;SDS011;67082;41.704;44.768;2023-04-25T10:15:12;3.70;;;1.20;;
77888;SDS011;67082;41.704;44.768;2023-04-25T10:17:42;3.70;;;1.23;;
77888;SDS011;67082;41.704;44.768;2023-04-25T10:20:11;2.78;;;1.48;;
77888;SDS011;67082;41.704;44.768;2023-04-25T10:22:44;5.95;;;1.00;;
77888;SDS011;67082;41.704;44.768;2023-04-25T10:25:14;2.70;;;1.02;;
77888;SDS011;67082;41.704;44.768;2023-04-25T10:27:42;2.05;;;1.10;;
77888;SDS011;67082;41.704;44.768;2023-04-25T10:30:14;5.57;;;1.10;;
77888;SDS011;67082;41.704;44.768;2023-04-25T10:32:43;2.35;;;1.10;;
77888;SDS011;67082;41.704;44.768;2023-04-25T10:35:18;3.33;;;1.13;;
77888;SDS011;67082;41.704;44.768;2023-04-25T10:38:04;4.03;;;1.27;;
77888;SDS011;67082;41.704;44.768;2023-04-25T10:40:36;2.20;;;1.08;;
77888;SDS011;67082;41.704;44.768;2023-04-25T10:45:59;5.22;;;1.20;;
77888;SDS011;67082;41.704;44.768;2023-04-25T10:48:31;5.03;;;1.38;;
77888;SDS011;67082;41.704;44.768;2023-04-25T10:53:38;3.00;;;1.05;;
77888;SDS011;67082;41.704;44.768;2023-04-25T10:56:18;4.28;;;0.93;;
77888;SDS011;67082;41.704;44.768;2023-04-25T10:58:48;3.70;;;1.00;;
77888;SDS011;67082;41.704;44.768;2023-04-25T11:01:20;3.42;;;1.10;;
77888;SDS011;67082;41.704;44.768;2023-04-25T11:03:49;2.58;;;1.10;;
77888;SDS011;67082;41.704;44.768;2023-04-25T11:06:29;2.03;;;0.85;;
77888;SDS011;67082;41.704;44.768;2023-04-25T11:09:00;3.58;;;1.20;;
77888;SDS011;67082;41.704;44.768;2023-04-25T11:11:29;3.13;;;1.17;;
77888;SDS011;67082;41.704;44.768;2023-04-25T11:13:57;2.58;;;1.27;;
77888;SDS011;67082;41.704;44.768;2023-04-25T11:16:26;3.30;;;1.20;;
77888;SDS011;67082;41.704;44.768;2023-04-25T11:18:57;4.97;;;1.08;;
77888;SDS011;67082;41.704;44.768;2023-04-25T11:21:25;2.33;;;1.13;;
77888;SDS011;67082;41.704;44.768;2023-04-25T11:23:58;3.33;;;1.30;;
77888;SDS011;67082;41.704;44.768;2023-04-25T11:26:28;4.47;;;1.10;;
77888;SDS011;67082;41.704;44.768;2023-04-25T11:28:58;2.13;;;1.10;;
77888;SDS011;67082;41.704;44.768;2023-04-25T11:31:28;3.65;;;1.05;;
77888;SDS011;67082;41.704;44.768;2023-04-25T11:33:57;2.33;;;1.17;;
77888;SDS011;67082;41.704;44.768;2023-04-25T11:36:26;1.75;;;0.98;;
77888;SDS011;67082;41.704;44.768;2023-04-25T11:38:55;2.92;;;1.00;;
77888;SDS011;67082;41.704;44.768;2023-04-25T11:41:23;1.80;;;0.98;;
77888;SDS011;67082;41.704;44.768;2023-04-25T11:43:53;3.08;;;1.00;;
77888;SDS011;67082;41.704;44.768;2023-04-25T11:46:22;4.30;;;1.20;;
77888;SDS011;67082;41.704;44.768;2023-04-25T11:48:50;6.57;;;1.20;;
77888;SDS011;67082;41.704;44.768;2023-04-25T11:51:19;3.10;;;0.95;;
77888;SDS011;67082;41.704;44.768;2023-04-25T11:53:47;3.22;;;1.10;;
77888;SDS011;67082;41.704;44.768;2023-04-25T11:56:15;1.65;;;0.90;;
77888;SDS011;67082;41.704;44.768;2023-04-25T11:58:56;2.25;;;0.70;;
77888;SDS011;67082;41.704;44.768;2023-04-25T12:01:28;1.80;;;0.90;;
77888;SDS011;67082;41.704;44.768;2023-04-25T12:04:17;2.35;;;0.90;;
77888;SDS011;67082;41.704;44.768;2023-04-25T12:06:49;1.65;;;0.80;;
77888;SDS011;67082;41.704;44.768;2023-04-25T12:09:20;1.95;;;1.00;;
77888;SDS011;67082;41.704;44.768;2023-04-25T12:11:55;6.47;;;1.00;;
77888;SDS011;67082;41.704;44.768;2023-04-25T12:14:29;2.60;;;0.80;;
77888;SDS011;67082;41.704;44.768;2023-04-25T12:17:00;2.53;;;0.88;;
77888;SDS011;67082;41.704;44.768;2023-04-25T12:19:35;3.92;;;0.90;;
77888;SDS011;67082;41.704;44.768;2023-04-25T12:22:21;1.92;;;0.80;;
77888;SDS011;67082;41.704;44.768;2023-04-25T12:24:51;2.47;;;0.70;;
77888;SDS011;67082;41.704;44.768;2023-04-25T12:27:22;4.32;;;1.02;;
77888;SDS011;67082;41.704;44.768;2023-04-25T12:29:54;2.28;;;1.00;;
77888;SDS011;67082;41.704;44.768;2023-04-25T12:32:24;2.80;;;0.90;;
77888;SDS011;67082;41.704;44.768;2023-04-25T12:34:53;4.75;;;0.80;;
77888;SDS011;67082;41.704;44.768;2023-04-25T12:37:21;2.38;;;0.80;;
77888;SDS011;67082;41.704;44.768;2023-04-25T12:39:49;2.38;;;0.63;;
77888;SDS011;67082;41.704;44.768;2023-04-25T12:42:18;3.05;;;0.77;;
77888;SDS011;67082;41.704;44.768;2023-04-25T12:44:46;2.55;;;1.05;;
77888;SDS011;67082;41.704;44.768;2023-04-25T12:47:14;1.92;;;1.00;;
77888;SDS011;67082;41.704;44.768;2023-04-25T12:49:42;2.10;;;1.10;;
77888;SDS011;67082;41.704;44.768;2023-04-25T12:52:11;2.30;;;0.88;;
77888;SDS011;67082;41.704;44.768;2023-04-25T12:54:39;1.65;;;0.75;;
77888;SDS011;67082;41.704;44.768;2023-04-25T12:57:07;3.25;;;0.90;;
77888;SDS011;67082;41.704;44.768;2023-04-25T12:59:35;2.00;;;0.85;;
77888;SDS011;67082;41.704;44.768;2023-04-25T13:02:03;2.55;;;0.90;;
77888;SDS011;67082;41.704;44.768;2023-04-25T13:04:32;2.92;;;0.80;;
77888;SDS011;67082;41.704;44.768;2023-04-25T13:07:00;2.17;;;0.80;;
77888;SDS011;67082;41.704;44.768;2023-04-25T13:09:28;1.75;;;0.93;;
77888;SDS011;67082;41.704;44.768;2023-04-25T13:11:57;2.05;;;0.98;;
77888;SDS011;67082;41.704;44.768;2023-04-25T13:14:25;1.63;;;0.88;;
77888;SDS011;67082;41.704;44.768;2023-04-25T13:16:54;3.53;;;0.88;;
77888;SDS011;67082;41.704;44.768;2023-04-25T13:19:22;1.48;;;0.80;;
77888;SDS011;67082;41.704;44.768;2023-04-25T13:21:50;4.35;;;0.90;;
77888;SDS011;67082;41.704;44.768;2023-04-25T13:24:18;1.45;;;0.77;;
77888;SDS011;67082;41.704;44.768;2023-04-25T13:26:46;2.95;;;1.05;;
77888;SDS011;67082;41.704;44.768;2023-04-25T13:29:14;3.08;;;1.00;;
77888;SDS011;67082;41.704;44.768;2023-04-25T13:31:42;1.95;;;1.00;;
77888;SDS011;67082;41.704;44.768;2023-04-25T13:34:10;4.28;;;1.23;;
77888;SDS011;67082;41.704;44.768;2023-04-25T13:36:40;2.30;;;0.90;;
77888;SDS011;67082;41.704;44.768;2023-04-25T13:39:08;4.22;;;0.88;;
77888;SDS011;67082;41.704;44.768;2023-04-25T13:41:36;2.72;;;1.00;;
77888;SDS011;67082;41.704;44.768;2023-04-25T13:44:04;1.73;;;1.00;;
77888;SDS011;67082;41.704;44.768;2023-04-25T13:46:33;3.10;;;1.10;;
77888;SDS011;67082;41.704;44.768;2023-04-25T13:49:13;1.88;;;0.73;;
77888;SDS011;67082;41.704;44.768;2023-04-25T13:51:42;1.05;;;0.60;;
77888;SDS011;67082;41.704;44.768;2023-04-25T13:54:10;2.75;;;0.95;;
77888;SDS011;67082;41.704;44.768;2023-04-25T13:56:38;1.50;;;0.80;;
77888;SDS011;67082;41.704;44.768;2023-04-25T13:59:09;1.75;;;0.90;;
77888;SDS011;67082;41.704;44.768;2023-04-25T14:01:38;2.08;;;0.80;;
77888;SDS011;67082;41.704;44.768;2023-04-25T14:04:06;1.67;;;0.80;;
77888;SDS011;67082;41.704;44.768;2023-04-25T14:06:35;5.15;;;1.77;;
77888;SDS011;67082;41.704;44.768;2023-04-25T14:09:05;2.17;;;0.70;;
77888;SDS011;67082;41.704;44.768;2023-04-25T14:11:34;2.03;;;0.90;;
77888;SDS011;67082;41.704;44.768;2023-04-25T14:14:02;2.85;;;1.20;;
77888;SDS011;67082;41.704;44.768;2023-04-25T14:16:30;1.80;;;0.80;;
77888;SDS011;67082;41.704;44.768;2023-04-25T14:18:59;2.38;;;1.00;;
77888;SDS011;67082;41.704;44.768;2023-04-25T14:21:28;3.22;;;1.10;;
77888;SDS011;67082;41.704;44.768;2023-04-25T14:23:56;3.35;;;1.10;;
77888;SDS011;67082;41.704;44.768;2023-04-25T14:26:24;2.15;;;0.90;;
77888;SDS011;67082;41.704;44.768;2023-04-25T14:28:52;1.70;;;1.00;;
77888;SDS011;67082;41.704;44.768;2023-04-25T14:31:21;2.15;;;1.10;;
77888;SDS011;67082;41.704;44.768;2023-04-25T14:33:49;2.38;;;1.10;;
77888;SDS011;67082;41.704;44.768;2023-04-25T14:36:18;3.53;;;1.05;;
77888;SDS011;67082;41.704;44.768;2023-04-25T14:38:46;1.60;;;0.85;;
77888;SDS011;67082;41.704;44.768;2023-04-25T14:41:14;2.47;;;1.20;;
77888;SDS011;67082;41.704;44.768;2023-04-25T14:43:43;3.00;;;1.20;;
77888;SDS011;67082;41.704;44.768;2023-04-25T14:46:12;3.83;;;1.23;;
77888;SDS011;67082;41.704;44.768;2023-04-25T14:48:40;2.00;;;0.93;;
77888;SDS011;67082;41.704;44.768;2023-04-25T14:51:09;3.75;;;2.22;;
77888;SDS011;67082;41.704;44.768;2023-04-25T14:53:37;5.32;;;2.75;;
77888;SDS011;67082;41.704;44.768;2023-04-25T14:56:06;3.40;;;1.80;;
77888;SDS011;67082;41.704;44.768;2023-04-25T14:58:34;3.58;;;1.58;;
77888;SDS011;67082;41.704;44.768;2023-04-25T15:01:03;4.15;;;1.65;;
77888;SDS011;67082;41.704;44.768;2023-04-25T15:03:31;2.65;;;1.20;;
77888;SDS011;67082;41.704;44.768;2023-04-25T15:06:00;2.63;;;0.82;;
77888;SDS011;67082;41.704;44.768;2023-04-25T15:08:28;2.28;;;1.25;;